Time;durP1;ratioP1;P1;durP2;ratioP2;P2;SDS_P1;SDS_P2;PMS_P1;PMS_P2;Temp;Humidity;BMP_temperature;BMP_pressure;BME280_temperature;BME280_humidity;BME280_pressure;Samples;Min_cycle;Max_cycle;Signal;HPM_P1;HPM_P2
2022/04/05 00:00:36;;;;;;;11.00;8.75;;;7.10;93.60;;;;;;5072516;28;20313;-66
2022/04/05 00:03:02;;;;;;;12.40;10.30;;;7.10;93.70;;;;;;5072875;28;20211;-66
2022/04/05 00:05:29;;;;;;;13.90;10.38;;;7.00;93.60;;;;;;5072732;28;20200;-65
2022/04/05 00:07:56;;;;;;;11.35;10.05;;;7.10;93.80;;;;;;5072643;28;20755;-65
2022/04/05 00:10:23;;;;;;;11.75;9.50;;;7.10;93.90;;;;;;5072561;28;20237;-66
2022/04/05 00:12:50;;;;;;;10.77;9.68;;;7.10;93.80;;;;;;5072568;28;20576;-66
2022/04/05 00:15:18;;;;;;;11.00;9.60;;;7.00;93.90;;;;;;5072147;28;20229;-66
2022/04/05 00:17:45;;;;;;;11.13;10.02;;;7.00;93.80;;;;;;5072553;28;20203;-66
2022/04/05 00:20:12;;;;;;;11.93;10.35;;;7.10;94.10;;;;;;5072475;28;20222;-65
2022/04/05 00:22:39;;;;;;;11.90;10.13;;;7.10;93.90;;;;;;5072573;28;20298;-65
2022/04/05 00:25:07;;;;;;;14.85;10.50;;;7.10;93.90;;;;;;5072199;28;20203;-65
2022/04/05 00:27:34;;;;;;;11.82;10.48;;;7.10;93.90;;;;;;5072404;28;20565;-66
2022/04/05 00:30:01;;;;;;;12.43;9.43;;;7.10;94.00;;;;;;5072913;28;20234;-65
2022/04/05 00:32:29;;;;;;;10.25;7.25;;;7.20;94.10;;;;;;5072840;28;20212;-66
2022/04/05 00:34:56;;;;;;;12.38;10.13;;;7.20;94.00;;;;;;5073003;28;20291;-65
2022/04/05 00:37:23;;;;;;;11.32;10.10;;;7.20;93.90;;;;;;5072591;28;20294;-66
2022/04/05 00:39:50;;;;;;;11.65;9.30;;;7.20;94.10;;;;;;5072627;28;20229;-65
2022/04/05 00:42:17;;;;;;;11.38;9.98;;;7.20;94.20;;;;;;5072708;28;20672;-66
2022/04/05 00:44:44;;;;;;;10.88;8.93;;;7.20;94.00;;;;;;5072099;28;20857;-66
2022/04/05 00:47:16;;;;;;;11.52;9.85;;;7.20;94.20;;;;;;5072164;28;20202;-66
2022/04/05 00:49:45;;;;;;;13.13;10.07;;;7.30;94.50;;;;;;5072669;28;20314;-66
2022/04/05 00:52:13;;;;;;;11.52;9.57;;;7.30;94.20;;;;;;5072207;28;20207;-66
2022/04/05 00:54:42;;;;;;;10.27;8.98;;;7.20;94.10;;;;;;5071913;28;20218;-66
2022/04/05 00:57:12;;;;;;;10.52;9.43;;;7.20;94.20;;;;;;5072020;28;20205;-65
2022/04/05 00:59:42;;;;;;;10.23;8.88;;;7.20;94.40;;;;;;5076861;28;20611;-67
2022/04/05 01:02:11;;;;;;;10.02;8.65;;;7.20;94.60;;;;;;5079161;28;20706;-65
2022/04/05 01:04:41;;;;;;;9.55;8.23;;;7.20;94.40;;;;;;5078689;28;20203;-66
2022/04/05 01:07:11;;;;;;;12.38;9.68;;;7.20;94.20;;;;;;5078759;28;20253;-66
2022/04/05 01:09:38;;;;;;;10.85;9.75;;;7.20;94.20;;;;;;5078287;28;20230;-65
2022/04/05 01:12:06;;;;;;;11.10;9.20;;;7.20;94.40;;;;;;5078482;28;20213;-65
2022/04/05 01:14:33;;;;;;;11.27;10.05;;;7.20;94.30;;;;;;5078618;28;20289;-65
2022/04/05 01:17:00;;;;;;;12.45;9.35;;;7.20;94.20;;;;;;5078327;28;20297;-66
2022/04/05 01:19:27;;;;;;;11.10;9.13;;;7.20;94.20;;;;;;5078362;28;20314;-66
2022/04/05 01:21:54;;;;;;;11.70;9.10;;;7.20;94.20;;;;;;5078351;28;20207;-65
2022/04/05 01:24:22;;;;;;;10.23;9.15;;;7.20;94.20;;;;;;5078395;28;20731;-65
2022/04/05 01:26:50;;;;;;;10.68;9.40;;;7.20;94.10;;;;;;5078433;28;20194;-65
2022/04/05 01:29:20;;;;;;;11.43;9.70;;;7.20;94.50;;;;;;5078766;28;20226;-67
2022/04/05 01:31:48;;;;;;;11.77;9.68;;;7.20;94.40;;;;;;5078434;28;20584;-65
2022/04/05 01:34:17;;;;;;;10.70;9.60;;;7.20;94.70;;;;;;5089259;28;20209;-65
2022/04/05 01:36:46;;;;;;;11.95;9.85;;;7.30;95.00;;;;;;5100172;28;20222;-66
2022/04/05 01:39:13;;;;;;;10.43;9.32;;;7.30;95.10;;;;;;5100020;28;20241;-66
2022/04/05 01:41:41;;;;;;;10.05;8.15;;;7.30;95.40;;;;;;5100157;28;20202;-65
2022/04/05 01:44:09;;;;;;;11.30;9.50;;;7.30;95.60;;;;;;5099754;28;20545;-65
2022/04/05 01:46:36;;;;;;;11.13;9.90;;;7.30;96.40;;;;;;5100037;28;20204;-65
2022/04/05 01:49:06;;;;;;;10.40;9.40;;;7.20;96.70;;;;;;5099860;28;20211;-65
2022/04/05 01:51:35;;;;;;;15.40;9.90;;;7.20;97.00;;;;;;5100017;28;20209;-65
2022/04/05 01:54:05;;;;;;;12.02;9.82;;;7.20;96.70;;;;;;5099785;28;20202;-65
2022/04/05 01:56:32;;;;;;;11.02;9.82;;;7.10;96.80;;;;;;5099927;28;20656;-66
2022/04/05 01:59:00;;;;;;;11.93;9.82;;;7.10;97.10;;;;;;5099927;28;20205;-66
2022/04/05 02:01:27;;;;;;;10.90;9.70;;;7.10;98.10;;;;;;5099946;28;20205;-65
2022/04/05 02:03:54;;;;;;;11.50;9.30;;;7.10;98.80;;;;;;5099726;28;20213;-66
2022/04/05 02:06:21;;;;;;;11.77;10.55;;;7.00;99.20;;;;;;5100137;28;20205;-66
2022/04/05 02:08:48;;;;;;;10.77;9.25;;;6.90;99.80;;;;;;5099880;28;20208;-66
2022/04/05 02:11:14;;;;;;;11.15;9.50;;;7.00;99.90;;;;;;5097652;28;20212;-65
2022/04/05 02:13:41;;;;;;;11.50;10.30;;;7.00;99.90;;;;;;5096574;28;20238;-66
2022/04/05 02:16:09;;;;;;;12.20;10.27;;;7.00;99.90;;;;;;5096718;28;20222;-66
2022/04/05 02:18:37;;;;;;;11.07;9.77;;;7.00;99.90;;;;;;5096699;28;20279;-66
2022/04/05 02:21:05;;;;;;;12.35;9.73;;;6.90;99.90;;;;;;5096705;28;20308;-66
2022/04/05 02:23:32;;;;;;;13.30;9.63;;;6.90;99.90;;;;;;5096382;28;20252;-66
2022/04/05 02:25:59;;;;;;;11.65;9.82;;;6.80;99.90;;;;;;5096613;28;20600;-66
2022/04/05 02:28:26;;;;;;;12.13;9.40;;;6.80;99.90;;;;;;5096249;28;20300;-66
2022/04/05 02:30:53;;;;;;;10.88;9.68;;;6.80;99.90;;;;;;5096367;28;20303;-66
2022/04/05 02:33:22;;;;;;;13.55;10.85;;;6.80;99.90;;;;;;5096239;28;20680;-66
2022/04/05 02:35:51;;;;;;;13.32;10.38;;;6.80;99.90;;;;;;5096346;28;20226;-66
2022/04/05 02:38:18;;;;;;;11.57;9.55;;;6.80;99.90;;;;;;5096371;28;20212;-66
2022/04/05 02:40:45;;;;;;;13.40;10.90;;;6.70;99.90;;;;;;5096178;28;20226;-65
2022/04/05 02:43:13;;;;;;;12.65;9.73;;;6.80;99.90;;;;;;5095947;28;20228;-65
2022/04/05 02:45:40;;;;;;;12.55;10.63;;;6.70;99.90;;;;;;5096368;28;20560;-66
2022/04/05 02:48:07;;;;;;;13.43;10.70;;;6.80;99.90;;;;;;5096112;28;20205;-66
2022/04/05 02:50:35;;;;;;;12.30;10.48;;;6.80;99.90;;;;;;5095924;28;20226;-66
2022/04/05 02:53:02;;;;;;;12.68;10.65;;;6.80;99.90;;;;;;5095807;28;20293;-65
2022/04/05 02:55:29;;;;;;;13.27;11.00;;;6.90;99.90;;;;;;5095785;28;20579;-66
2022/04/05 02:57:55;;;;;;;12.35;10.35;;;6.80;99.90;;;;;;5095722;28;20254;-66
2022/04/05 03:00:22;;;;;;;14.30;10.00;;;6.80;99.90;;;;;;5096104;28;20248;-66
2022/04/05 03:02:49;;;;;;;9.57;8.50;;;6.80;99.90;;;;;;5095802;28;20202;-66
2022/04/05 03:05:19;;;;;;;12.48;9.18;;;6.80;99.90;;;;;;5095594;28;20209;-66
2022/04/05 03:07:47;;;;;;;11.82;9.73;;;6.70;99.90;;;;;;5095302;28;20672;-66
2022/04/05 03:10:14;;;;;;;11.80;9.77;;;6.70;99.90;;;;;;5095406;28;20218;-65
2022/04/05 03:12:40;;;;;;;11.63;9.65;;;6.70;99.90;;;;;;5095535;28;20309;-66
2022/04/05 03:15:09;;;;;;;11.35;9.55;;;6.80;99.90;;;;;;5095178;28;20680;-66
2022/04/05 03:17:41;;;;;;;12.15;9.68;;;6.80;99.90;;;;;;5095498;28;20628;-65
2022/04/05 03:20:12;;;;;;;12.95;10.45;;;6.80;99.90;;;;;;5095472;28;20230;-66
2022/04/05 03:22:39;;;;;;;13.43;10.60;;;6.80;99.90;;;;;;5094970;28;20632;-66
2022/04/05 03:25:08;;;;;;;13.77;11.35;;;6.80;99.90;;;;;;5094857;28;20210;-66
2022/04/05 03:27:38;;;;;;;13.38;11.23;;;6.80;99.90;;;;;;5094959;28;20698;-66
2022/04/05 03:30:06;;;;;;;12.48;10.90;;;6.80;99.90;;;;;;5095278;28;20236;-66
2022/04/05 03:32:33;;;;;;;12.70;10.18;;;6.80;99.90;;;;;;5095362;28;20201;-66
2022/04/05 03:35:00;;;;;;;12.45;10.95;;;6.80;99.90;;;;;;5095127;28;20206;-66
2022/04/05 03:37:27;;;;;;;12.10;10.52;;;6.80;99.90;;;;;;5095048;28;20221;-66
2022/04/05 03:39:54;;;;;;;15.35;11.95;;;6.80;99.90;;;;;;5095084;28;20283;-66
2022/04/05 03:42:22;;;;;;;13.98;11.60;;;6.80;99.90;;;;;;5095138;28;20198;-66
2022/04/05 03:44:49;;;;;;;15.80;11.75;;;6.60;99.90;;;;;;5094724;28;20206;-66
2022/04/05 03:47:16;;;;;;;13.57;10.50;;;6.60;99.90;;;;;;5094763;28;20209;-66
2022/04/05 03:49:43;;;;;;;14.40;11.77;;;6.60;99.90;;;;;;5094941;28;20309;-66
2022/04/05 03:52:10;;;;;;;15.02;11.85;;;6.60;99.90;;;;;;5094796;28;20293;-66
2022/04/05 03:54:37;;;;;;;15.43;11.45;;;6.60;99.90;;;;;;5094704;28;20297;-65
2022/04/05 03:57:04;;;;;;;15.60;11.82;;;6.60;99.90;;;;;;5094955;28;20228;-66
2022/04/05 03:59:33;;;;;;;14.82;12.07;;;6.50;99.90;;;;;;5094626;28;20252;-66
2022/04/05 04:01:59;;;;;;;13.48;11.70;;;6.50;99.90;;;;;;5094494;28;20202;-66
2022/04/05 04:04:26;;;;;;;14.80;11.65;;;6.60;99.90;;;;;;5094380;28;20285;-66
2022/04/05 04:06:53;;;;;;;11.77;10.52;;;6.60;99.90;;;;;;5094668;28;20537;-66
2022/04/05 04:09:20;;;;;;;13.60;10.68;;;6.60;99.90;;;;;;5094361;28;20256;-65
2022/04/05 04:11:47;;;;;;;12.18;9.95;;;6.60;99.90;;;;;;5094223;28;20202;-66
2022/04/05 04:14:13;;;;;;;13.20;10.50;;;6.60;99.90;;;;;;5094309;28;20198;-66
2022/04/05 04:16:41;;;;;;;11.75;9.75;;;6.70;99.90;;;;;;5094356;28;20695;-66
2022/04/05 04:19:08;;;;;;;24.42;18.02;;;6.70;99.90;;;;;;5094383;28;20228;-66
2022/04/05 04:21:36;;;;;;;12.23;10.13;;;6.70;99.90;;;;;;5094291;28;20202;-66
2022/04/05 04:24:03;;;;;;;13.90;11.35;;;6.70;99.90;;;;;;5094229;28;20296;-66
2022/04/05 04:26:29;;;;;;;12.57;10.48;;;6.70;99.90;;;;;;5093989;28;20198;-66
2022/04/05 04:29:01;;;;;;;13.25;10.75;;;6.60;99.90;;;;;;5094134;28;20225;-66
2022/04/05 04:31:27;;;;;;;14.98;11.05;;;6.60;99.90;;;;;;5094284;28;20186;-66
2022/04/05 04:33:56;;;;;;;12.35;10.30;;;6.60;99.90;;;;;;5093345;28;20198;-66
2022/04/05 04:36:22;;;;;;;13.77;10.13;;;6.60;99.90;;;;;;5093815;28;20229;-66
2022/04/05 04:38:50;;;;;;;12.35;9.77;;;6.60;99.90;;;;;;5093988;28;20213;-66
2022/04/05 04:41:17;;;;;;;11.77;10.48;;;6.50;99.90;;;;;;5094237;28;20204;-66
2022/04/05 04:43:44;;;;;;;12.10;10.75;;;6.50;99.90;;;;;;5093797;28;20212;-66
2022/04/05 04:46:10;;;;;;;12.60;9.75;;;6.60;99.90;;;;;;5093807;28;20202;-66
2022/04/05 04:48:37;;;;;;;13.70;10.60;;;6.50;99.90;;;;;;5093980;28;20229;-66
2022/04/05 04:51:05;;;;;;;11.95;10.45;;;6.60;99.90;;;;;;5093910;28;20222;-66
2022/04/05 04:53:32;;;;;;;13.23;10.60;;;6.60;99.90;;;;;;5093641;28;20201;-66
2022/04/05 04:55:59;;;;;;;12.80;10.50;;;6.60;99.90;;;;;;5093746;28;20584;-66
2022/04/05 04:58:26;;;;;;;13.82;10.93;;;6.60;99.90;;;;;;5093838;28;20237;-66
2022/04/05 05:00:53;;;;;;;17.13;12.10;;;6.60;99.90;;;;;;5094091;28;20243;-66
2022/04/05 05:03:20;;;;;;;14.00;11.52;;;6.50;99.90;;;;;;5093511;28;20213;-66
2022/04/05 05:05:46;;;;;;;16.02;11.70;;;6.50;99.90;;;;;;5093719;28;20292;-66
2022/04/05 05:08:15;;;;;;;14.73;11.70;;;6.30;99.90;;;;;;5093722;28;20198;-66
2022/04/05 05:10:41;;;;;;;19.48;13.05;;;6.30;99.90;;;;;;5093734;28;20318;-66
2022/04/05 05:13:09;;;;;;;15.45;11.95;;;6.40;99.90;;;;;;5093579;28;20204;-66
2022/04/05 05:15:36;;;;;;;14.18;11.80;;;6.30;99.90;;;;;;5093689;28;20208;-66
2022/04/05 05:18:03;;;;;;;14.10;11.82;;;6.20;99.90;;;;;;5093537;28;20253;-66
2022/04/05 05:20:30;;;;;;;16.20;12.43;;;6.30;99.90;;;;;;5093577;28;20222;-66
2022/04/05 05:22:57;;;;;;;14.23;12.23;;;6.30;99.90;;;;;;5093729;28;20283;-65
2022/04/05 05:25:25;;;;;;;16.75;12.85;;;6.20;99.90;;;;;;5093602;28;20617;-66
2022/04/05 05:27:52;;;;;;;22.85;14.35;;;6.20;99.90;;;;;;5093201;28;20206;-66
2022/04/05 05:30:18;;;;;;;22.95;16.02;;;6.20;99.90;;;;;;5093516;28;20222;-66
2022/04/05 05:32:47;;;;;;;14.88;11.90;;;6.20;99.90;;;;;;5093401;28;20656;-66
2022/04/05 05:35:15;;;;;;;15.13;12.05;;;6.30;99.90;;;;;;5093277;28;20203;-66
2022/04/05 05:37:42;;;;;;;22.02;11.60;;;6.40;99.90;;;;;;5093566;28;20218;-66
2022/04/05 05:40:11;;;;;;;13.60;11.13;;;6.40;99.90;;;;;;5093161;28;20271;-66
2022/04/05 05:42:52;;;;;;;13.90;11.60;;;6.40;99.90;;;;;;5093188;28;20203;-66
2022/04/05 05:45:19;;;;;;;14.90;12.00;;;6.50;99.90;;;;;;5094818;28;20574;-66
2022/04/05 05:47:47;;;;;;;14.40;11.85;;;6.40;99.90;;;;;;5097178;28;20237;-66
2022/04/05 05:50:14;;;;;;;15.35;12.02;;;6.40;99.90;;;;;;5097425;28;20226;-66
2022/04/05 05:52:42;;;;;;;14.75;12.38;;;6.40;99.90;;;;;;5097094;28;20198;-66
2022/04/05 05:55:10;;;;;;;14.63;12.10;;;6.40;99.90;;;;;;5096960;28;20206;-66
2022/04/05 05:57:37;;;;;;;15.05;12.13;;;6.40;99.90;;;;;;5096826;28;20644;-66
2022/04/05 06:00:07;;;;;;;15.85;12.50;;;6.50;99.90;;;;;;5096941;28;20248;-66
2022/04/05 06:02:38;;;;;;;16.10;11.55;;;6.40;99.90;;;;;;5095642;28;20202;-66
2022/04/05 06:05:06;;;;;;;13.30;10.90;;;6.40;99.90;;;;;;5096794;28;20206;-66
2022/04/05 06:07:34;;;;;;;13.07;11.00;;;6.40;99.90;;;;;;5096708;28;20244;-66
2022/04/05 06:10:01;;;;;;;25.02;18.00;;;6.30;99.90;;;;;;5096380;28;20703;-66
2022/04/05 06:12:28;;;;;;;13.63;11.23;;;6.40;99.90;;;;;;5096699;28;20205;-66
2022/04/05 06:14:55;;;;;;;13.55;11.05;;;6.40;99.90;;;;;;5096425;28;20213;-66
2022/04/05 06:17:24;;;;;;;12.75;10.43;;;6.40;99.90;;;;;;5096501;28;20228;-66
2022/04/05 06:19:51;;;;;;;15.60;11.30;;;6.40;99.90;;;;;;5096405;28;20228;-66
2022/04/05 06:22:18;;;;;;;16.05;11.35;;;6.30;99.90;;;;;;5096539;28;20579;-66
2022/04/05 06:24:46;;;;;;;13.13;11.23;;;6.40;99.90;;;;;;5096480;28;20202;-66
2022/04/05 06:27:13;;;;;;;15.90;11.63;;;6.40;99.90;;;;;;5096327;28;20206;-66
2022/04/05 06:29:40;;;;;;;13.20;10.52;;;6.30;99.90;;;;;;5096237;28;20587;-66
2022/04/05 06:32:07;;;;;;;11.82;10.43;;;6.40;99.90;;;;;;5096466;28;20209;-66
2022/04/05 06:34:36;;;;;;;14.45;11.35;;;6.40;99.90;;;;;;5095989;28;20293;-66
2022/04/05 06:37:02;;;;;;;14.18;10.70;;;6.40;99.90;;;;;;5095922;28;20217;-66
2022/04/05 06:39:29;;;;;;;13.88;11.48;;;6.40;99.90;;;;;;5096204;28;20229;-66
2022/04/05 06:41:56;;;;;;;11.85;9.57;;;6.40;99.90;;;;;;5096557;28;20202;-66
2022/04/05 06:44:23;;;;;;;13.43;10.70;;;6.40;99.90;;;;;;5096029;28;20212;-66
2022/04/05 06:46:50;;;;;;;12.73;10.40;;;6.40;99.90;;;;;;5096006;28;20288;-66
2022/04/05 06:49:17;;;;;;;20.80;14.93;;;6.40;99.90;;;;;;5095956;28;20224;-66
2022/04/05 06:51:45;;;;;;;12.60;10.60;;;6.40;99.90;;;;;;5096029;28;20202;-66
2022/04/05 06:54:11;;;;;;;13.48;11.30;;;6.40;99.90;;;;;;5095787;28;20206;-66
2022/04/05 06:56:38;;;;;;;13.75;11.60;;;6.40;99.90;;;;;;5095080;28;20222;-66
2022/04/05 06:59:05;;;;;;;11.38;10.15;;;6.50;99.90;;;;;;5095619;28;20204;-66
2022/04/05 07:01:32;;;;;;;13.95;10.73;;;6.50;99.90;;;;;;5095600;28;20668;-66
2022/04/05 07:03:59;;;;;;;14.25;11.02;;;6.50;99.90;;;;;;5095364;28;20205;-66
2022/04/05 07:06:26;;;;;;;13.57;10.70;;;6.50;99.90;;;;;;5095888;28;20202;-66
2022/04/05 07:08:54;;;;;;;12.60;10.60;;;6.60;99.90;;;;;;5095303;28;20292;-66
2022/04/05 07:11:21;;;;;;;11.93;10.63;;;6.70;99.90;;;;;;5095606;28;20220;-66
2022/04/05 07:13:48;;;;;;;11.88;10.13;;;6.70;99.90;;;;;;5095431;28;20209;-66
2022/04/05 07:16:14;;;;;;;13.82;11.27;;;6.70;99.90;;;;;;5095454;28;20288;-66
2022/04/05 07:18:41;;;;;;;12.60;10.25;;;6.70;99.90;;;;;;5095452;28;20322;-66
2022/04/05 07:21:08;;;;;;;11.40;9.55;;;6.80;99.90;;;;;;5095444;28;20396;-66
2022/04/05 07:23:37;;;;;;;11.48;9.43;;;6.80;99.90;;;;;;5094989;28;20202;-66
2022/04/05 07:26:05;;;;;;;11.90;9.63;;;6.80;99.90;;;;;;5095334;28;20252;-66
2022/04/05 07:28:32;;;;;;;14.82;10.50;;;6.90;99.90;;;;;;5095089;28;20202;-66
2022/04/05 07:30:59;;;;;;;12.60;9.57;;;6.90;99.90;;;;;;5094947;28;20276;-66
2022/04/05 07:33:26;;;;;;;11.43;10.23;;;7.00;99.90;;;;;;5094984;28;20289;-66
2022/04/05 07:35:52;;;;;;;11.23;9.10;;;7.00;99.90;;;;;;5095218;28;20295;-66
2022/04/05 07:38:19;;;;;;;10.65;8.80;;;6.90;99.90;;;;;;5095035;28;20313;-66
2022/04/05 07:40:48;;;;;;;11.13;9.40;;;7.00;99.90;;;;;;5094772;28;20842;-66
2022/04/05 07:43:18;;;;;;;11.43;9.63;;;7.00;99.90;;;;;;5094879;28;20227;-66
2022/04/05 07:45:48;;;;;;;12.13;9.25;;;7.00;99.90;;;;;;5094919;28;20202;-66
2022/04/05 07:48:15;;;;;;;11.85;9.90;;;7.10;99.90;;;;;;5094945;28;20202;-66
2022/04/05 07:50:42;;;;;;;12.20;9.88;;;7.00;99.90;;;;;;5095075;28;20230;-66
2022/04/05 07:53:09;;;;;;;11.68;8.95;;;7.00;99.90;;;;;;5094980;28;20202;-66
2022/04/05 07:55:36;;;;;;;10.68;8.43;;;7.10;99.90;;;;;;5094828;28;20210;-66
2022/04/05 07:58:02;;;;;;;13.20;9.98;;;7.10;99.90;;;;;;5094964;28;20238;-66
2022/04/05 08:00:31;;;;;;;11.50;9.80;;;7.20;99.90;;;;;;5094915;28;20224;-66
2022/04/05 08:02:57;;;;;;;11.80;9.60;;;7.20;99.90;;;;;;5094981;28;20209;-65
2022/04/05 08:05:24;;;;;;;14.85;10.13;;;7.30;99.90;;;;;;5094835;28;20202;-66
2022/04/05 08:07:51;;;;;;;11.00;8.65;;;7.30;99.90;;;;;;5094383;28;20675;-66
2022/04/05 08:10:18;;;;;;;9.05;8.15;;;7.40;99.90;;;;;;5094440;28;20218;-66
2022/04/05 08:12:47;;;;;;;12.07;8.93;;;7.40;99.90;;;;;;5094435;28;20296;-66
2022/04/05 08:15:16;;;;;;;11.70;10.35;;;7.40;99.90;;;;;;5094164;28;20206;-66
2022/04/05 08:17:45;;;;;;;7.78;7.00;;;7.50;99.90;;;;;;5094204;28;20557;-66
2022/04/05 08:20:12;;;;;;;11.48;9.40;;;7.60;99.90;;;;;;5094504;28;20221;-66
2022/04/05 08:22:39;;;;;;;10.57;9.50;;;7.70;99.90;;;;;;5094361;28;20225;-66
2022/04/05 08:25:08;;;;;;;10.82;8.57;;;7.70;99.90;;;;;;5094333;28;20198;-66
2022/04/05 08:27:35;;;;;;;12.30;9.20;;;7.70;99.90;;;;;;5093999;28;20210;-66
2022/04/05 08:30:02;;;;;;;10.00;8.63;;;7.70;99.90;;;;;;5094112;28;20576;-66
2022/04/05 08:32:29;;;;;;;10.77;8.98;;;7.70;99.90;;;;;;5094127;28;20294;-66
2022/04/05 08:34:57;;;;;;;17.65;12.25;;;7.80;99.90;;;;;;5094120;28;20628;-66
2022/04/05 08:37:24;;;;;;;11.50;9.65;;;7.80;99.90;;;;;;5093855;28;20217;-66
2022/04/05 08:39:51;;;;;;;9.48;8.48;;;7.80;99.90;;;;;;5094042;28;20222;-66
2022/04/05 08:42:18;;;;;;;9.35;8.32;;;7.90;99.90;;;;;;5093960;28;20217;-66
2022/04/05 08:44:45;;;;;;;9.05;8.15;;;7.90;99.90;;;;;;5093906;28;20601;-66
2022/04/05 08:47:13;;;;;;;8.80;7.90;;;7.90;99.90;;;;;;5094133;28;20198;-66
2022/04/05 08:49:40;;;;;;;9.50;8.20;;;8.00;99.90;;;;;;5093871;28;20218;-66
2022/04/05 08:52:09;;;;;;;10.18;8.55;;;8.00;99.90;;;;;;5093922;28;20205;-66
2022/04/05 08:54:36;;;;;;;9.55;8.52;;;8.10;99.90;;;;;;5093523;28;20217;-66
2022/04/05 08:57:03;;;;;;;10.32;8.82;;;8.10;99.90;;;;;;5093763;28;20198;-66
2022/04/05 08:59:31;;;;;;;8.48;7.60;;;8.20;99.90;;;;;;5093765;28;20575;-66
2022/04/05 09:01:58;;;;;;;10.18;8.75;;;8.30;99.90;;;;;;5093659;28;20210;-66
2022/04/05 09:04:25;;;;;;;10.55;8.70;;;8.30;99.90;;;;;;5093357;28;20202;-66
2022/04/05 09:06:52;;;;;;;10.93;8.70;;;8.30;99.90;;;;;;5093518;28;20202;-66
2022/04/05 09:09:22;;;;;;;9.55;8.02;;;8.40;99.90;;;;;;5093632;28;20244;-66
2022/04/05 09:11:50;;;;;;;8.88;7.60;;;8.50;99.90;;;;;;5093441;28;20213;-66
2022/04/05 09:14:24;;;;;;;10.00;9.00;;;8.50;99.90;;;;;;5093383;28;20206;-66
2022/04/05 09:17:05;;;;;;;10.88;7.75;;;8.60;99.90;;;;;;5093842;28;20292;-66
2022/04/05 09:19:37;;;;;;;10.00;7.70;;;8.80;99.90;;;;;;5093652;28;20229;-66
2022/04/05 09:22:05;;;;;;;9.38;7.22;;;8.80;99.90;;;;;;5097831;28;20224;-66
2022/04/05 09:24:38;;;;;;;8.63;7.30;;;8.80;99.90;;;;;;5097665;28;20206;-66
2022/04/05 09:27:06;;;;;;;8.70;7.43;;;8.70;99.90;;;;;;5097409;28;20206;-66
2022/04/05 09:29:40;;;;;;;9.18;7.75;;;8.80;99.90;;;;;;5097440;28;20762;-66
2022/04/05 09:32:08;;;;;;;9.45;8.05;;;8.80;99.90;;;;;;5097688;28;20202;-66
2022/04/05 09:34:48;;;;;;;9.52;7.63;;;8.90;99.90;;;;;;5097339;28;20199;-66
2022/04/05 09:37:15;;;;;;;28.85;20.35;;;8.90;99.90;;;;;;5097233;28;20301;-66
2022/04/05 09:39:44;;;;;;;7.35;6.70;;;9.00;99.90;;;;;;5097155;28;20222;-66
2022/04/05 09:42:11;;;;;;;8.43;7.63;;;9.10;99.90;;;;;;5097384;28;20202;-66
2022/04/05 09:44:40;;;;;;;9.55;7.53;;;9.10;99.90;;;;;;5097120;28;20292;-66
2022/04/05 09:47:09;;;;;;;7.70;7.00;;;9.20;99.90;;;;;;5097294;28;20198;-66
2022/04/05 09:49:37;;;;;;;7.82;7.03;;;9.30;99.90;;;;;;5096975;28;20222;-66
2022/04/05 09:52:22;;;;;;;8.93;7.53;;;9.30;99.90;;;;;;5097320;28;20198;-66
2022/04/05 09:54:50;;;;;;;7.13;6.43;;;9.40;99.90;;;;;;5097017;28;20193;-66
2022/04/05 09:57:29;;;;;;;9.00;7.60;;;9.40;99.90;;;;;;5097005;28;20297;-66
2022/04/05 10:00:09;;;;;;;8.35;7.07;;;9.50;99.90;;;;;;5096984;28;20222;-66
2022/04/05 10:02:36;;;;;;;8.30;7.50;;;9.40;99.90;;;;;;5096719;28;20201;-66
2022/04/05 10:05:06;;;;;;;9.10;8.18;;;9.40;99.90;;;;;;5096681;28;20557;-66
2022/04/05 10:07:34;;;;;;;8.38;7.57;;;9.40;99.90;;;;;;5096859;28;20624;-66
2022/04/05 10:10:04;;;;;;;7.60;6.80;;;9.30;99.90;;;;;;5096456;28;20228;-66
2022/04/05 10:12:32;;;;;;;7.22;6.50;;;9.20;99.90;;;;;;5096730;28;20203;-66
2022/04/05 10:15:00;;;;;;;9.30;7.32;;;9.20;99.90;;;;;;5096799;28;20206;-66
2022/04/05 10:17:28;;;;;;;8.25;7.45;;;9.10;99.90;;;;;;5096610;28;20210;-66
2022/04/05 10:19:57;;;;;;;8.40;7.50;;;9.10;99.90;;;;;;5096616;28;20229;-66
2022/04/05 10:22:25;;;;;;;8.40;7.60;;;9.20;99.90;;;;;;5096507;28;20210;-66
2022/04/05 10:24:53;;;;;;;8.18;7.38;;;9.20;99.90;;;;;;5096469;28;20279;-66
2022/04/05 10:27:22;;;;;;;8.75;7.55;;;9.30;99.90;;;;;;5096255;28;20646;-66
2022/04/05 10:29:56;;;;;;;9.65;7.68;;;9.30;99.90;;;;;;5096131;28;20225;-66
2022/04/05 10:32:33;;;;;;;8.07;7.32;;;9.30;99.90;;;;;;5095072;28;20610;-66
2022/04/05 10:35:04;;;;;;;8.15;7.00;;;9.30;99.90;;;;;;5096137;28;20206;-66
2022/04/05 10:37:33;;;;;;;7.88;6.63;;;9.40;99.90;;;;;;5096193;28;20237;-66
2022/04/05 10:40:20;;;;;;;8.77;7.63;;;9.40;99.90;;;;;;5096097;28;20254;-66
2022/04/05 10:42:51;;;;;;;7.78;7.00;;;9.40;99.90;;;;;;5096225;28;20202;-66
2022/04/05 10:45:20;;;;;;;7.80;7.10;;;9.40;99.90;;;;;;5095705;28;20293;-66
2022/04/05 10:48:12;;;;;;;8.30;7.50;;;9.30;99.90;;;;;;5096075;28;20201;-66
2022/04/05 10:50:39;;;;;;;10.70;8.27;;;9.30;99.90;;;;;;5095697;28;20280;-66
2022/04/05 10:53:19;;;;;;;8.82;7.90;;;9.40;99.90;;;;;;5095532;28;20678;-66
2022/04/05 10:56:14;;;;;;;9.57;8.43;;;9.40;99.90;;;;;;5096102;28;20198;-66
2022/04/05 10:58:58;;;;;;;7.68;6.88;;;9.40;99.90;;;;;;5095633;28;20222;-66
2022/04/05 11:01:26;;;;;;;7.75;6.95;;;9.50;99.90;;;;;;5095469;28;20209;-66
2022/04/05 11:04:29;;;;;;;8.25;6.88;;;9.50;99.90;;;;;;5095587;28;20212;-66
2022/04/05 11:07:14;;;;;;;8.30;7.38;;;9.50;99.90;;;;;;5095742;28;20213;-66
2022/04/05 11:10:00;;;;;;;8.43;7.13;;;9.60;99.90;;;;;;5079539;28;20230;-67
2022/04/05 11:12:30;;;;;;;9.50;8.20;;;9.70;99.90;;;;;;5094861;28;20575;-66
2022/04/05 11:15:03;;;;;;;7.90;6.85;;;9.70;99.90;;;;;;5094266;28;20198;-66
2022/04/05 11:17:33;;;;;;;7.60;6.25;;;9.70;99.90;;;;;;5094299;28;20186;-66
2022/04/05 11:20:02;;;;;;;7.00;6.30;;;9.70;99.90;;;;;;5093685;28;20244;-66
2022/04/05 11:22:34;;;;;;;6.45;5.85;;;9.70;99.90;;;;;;5093891;28;20208;-65
2022/04/05 11:25:04;;;;;;;6.50;5.90;;;9.80;99.90;;;;;;5093669;28;20209;-66
2022/04/05 11:27:34;;;;;;;7.40;6.28;;;9.80;99.90;;;;;;5094253;28;20210;-65
2022/04/05 11:30:40;;;;;;;6.97;6.32;;;9.90;99.90;;;;;;5094040;28;20222;-65
2022/04/05 11:33:15;;;;;;;7.90;6.40;;;10.00;99.90;;;;;;5093710;28;20247;-65
2022/04/05 11:35:43;;;;;;;7.43;6.68;;;10.00;99.90;;;;;;5094006;28;20576;-65
2022/04/05 11:38:29;;;;;;;9.30;5.95;;;10.00;99.90;;;;;;5094185;28;20218;-65
2022/04/05 11:41:00;;;;;;;6.97;6.28;;;10.00;99.90;;;;;;5093733;28;20314;-65
2022/04/05 11:43:30;;;;;;;7.20;5.68;;;10.10;99.90;;;;;;5093445;28;20281;-65
2022/04/05 11:45:59;;;;;;;7.07;5.90;;;10.10;99.90;;;;;;5093632;28;20664;-65
2022/04/05 11:48:27;;;;;;;6.75;6.05;;;10.20;99.90;;;;;;5093799;28;20205;-67
2022/04/05 11:50:55;;;;;;;5.88;5.38;;;10.20;99.90;;;;;;5093400;28;20312;-65
2022/04/05 11:53:23;;;;;;;6.60;6.00;;;10.30;99.90;;;;;;5093091;28;20636;-66
2022/04/05 11:56:11;;;;;;;6.18;5.57;;;10.40;99.90;;;;;;5093398;28;20202;-67
2022/04/05 11:58:38;;;;;;;9.95;8.48;;;10.30;99.90;;;;;;5093270;28;20218;-68
2022/04/05 12:01:08;;;;;;;8.20;5.80;;;10.40;99.90;;;;;;5093250;28;20584;-66
2022/04/05 12:03:42;;;;;;;5.35;4.88;;;10.30;99.90;;;;;;5092854;28;20208;-67
2022/04/05 12:06:09;;;;;;;5.97;5.47;;;10.30;99.90;;;;;;5093012;28;20206;-67
2022/04/05 12:08:36;;;;;;;5.18;4.68;;;10.40;99.90;;;;;;5093656;28;20568;-67
2022/04/05 12:11:04;;;;;;;6.65;5.70;;;10.40;99.90;;;;;;5093383;28;20218;-67
2022/04/05 12:13:34;;;;;;;5.88;5.28;;;10.40;99.90;;;;;;5092906;28;20206;-67
2022/04/05 12:16:01;;;;;;;6.07;5.20;;;10.40;99.90;;;;;;5093020;28;20224;-67
2022/04/05 12:18:30;;;;;;;5.80;5.05;;;10.40;99.90;;;;;;5093257;28;20222;-67
2022/04/05 12:20:58;;;;;;;6.20;5.60;;;10.40;99.90;;;;;;5093021;28;20586;-67
2022/04/05 12:23:29;;;;;;;5.35;4.85;;;10.50;99.90;;;;;;5093182;28;20231;-67
2022/04/05 12:26:10;;;;;;;7.97;6.95;;;10.50;99.90;;;;;;5092699;28;20198;-66
2022/04/05 12:28:39;;;;;;;5.40;4.90;;;10.50;99.90;;;;;;5092548;28;20206;-67
2022/04/05 12:31:08;;;;;;;6.05;5.43;;;10.50;99.90;;;;;;5092953;28;20225;-67
2022/04/05 12:33:39;;;;;;;5.47;4.85;;;10.60;99.90;;;;;;5092632;28;20283;-67
2022/04/05 12:36:07;;;;;;;5.47;4.97;;;10.60;99.90;;;;;;5092337;28;20672;-66
2022/04/05 12:38:34;;;;;;;5.80;4.90;;;10.70;99.90;;;;;;5092740;28;20222;-67
2022/04/05 12:41:02;;;;;;;5.53;5.03;;;10.70;99.90;;;;;;5092585;28;20244;-67
2022/04/05 12:43:29;;;;;;;5.40;4.90;;;10.80;99.90;;;;;;5092661;28;20206;-66
2022/04/05 12:45:56;;;;;;;5.80;5.20;;;10.80;99.90;;;;;;5092762;28;20206;-66
2022/04/05 12:48:23;;;;;;;5.60;5.10;;;10.80;99.90;;;;;;5092704;28;20210;-66
2022/04/05 12:50:54;;;;;;;6.75;5.20;;;10.80;99.90;;;;;;5092648;28;20230;-66
2022/04/05 12:53:28;;;;;;;6.70;4.65;;;10.80;99.90;;;;;;5092371;28;20594;-66